Home   Weather   Mount Bates   Past weeks
Flag for Norfolk Island

Past Weather in Mount Bates, Norfolk Island — Yesterday and Last 2 Weeks

Currently: 68 °F. Clear. (Weather station: Norfolk Island Airport, Norfolk Island). See more current weather

Past Weather in Mount Bates — Graph

°F

Mount Bates Temperature Yesterday

Maximum temperature yesterday: 79 °F (at 12:00 pm)
Minimum temperature yesterday: 66 °F (at 3:00 am)
Average temperature yesterday: 72 °F

High & Low Weather Summary for the Past Weeks

 TemperatureHumidityPressure
High82 °F (Feb 21, 1:12 pm)100% (Feb 16, 10:00 am)30.15 "Hg (Feb 16, 10:00 am)
Low66 °F (Mar 1, 3:00 am)51% (Feb 29, 3:00 pm)29.83 "Hg (Feb 27, 4:30 am)
Average74 °F79%30.03 "Hg
* Reported Feb 16 6:00 am — Mar 2 6:00 am, Mount Bates. Weather by CustomWeather, © 2024

Note: Actual official high and low records may vary slightly from our data, if they occured in-between our weather recording intervals... More about our weather records

Mount Bates Weather History for the Previous 24 Hours

Scroll right to see more
 ConditionsComfort  
Time TempWeatherWind HumidityBarometerVisibility
6:00 am
Sat, Mar 2
70 °FPassing clouds.10 mph83%30.07 "HgN/A
5:30 am70 °FOvercast.10 mph83%30.07 "HgN/A
5:00 am70 °FOvercast.10 mph83%30.07 "HgN/A
4:30 am68 °FClear.9 mph83%30.07 "HgN/A
4:00 am68 °FClear.9 mph88%30.07 "HgN/A
3:30 am68 °FClear.9 mph83%30.07 "HgN/A
3:00 am68 °FClear.9 mph83%30.07 "HgN/A
2:30 am70 °FClear.8 mph83%30.07 "HgN/A
2:00 am70 °FClear.8 mph78%30.09 "HgN/A
1:30 am70 °FPassing clouds.8 mph78%30.09 "HgN/A
12:30 am70 °FClear.9 mph78%30.09 "HgN/A
12:00 am70 °FClear.9 mph78%30.09 "HgN/A
11:30 pm
Fri, Mar 1
70 °FClear.10 mph78%30.09 "HgN/A
11:00 pm70 °FClear.10 mph78%30.09 "HgN/A
10:30 pm70 °FClear.10 mph78%30.09 "HgN/A
10:00 pm72 °FClear.10 mph73%30.09 "HgN/A
9:30 pm72 °FPassing clouds.9 mph73%30.09 "HgN/A
9:00 pm70 °FPassing clouds.9 mph78%30.07 "HgN/A
8:30 pm70 °FClear.9 mph78%30.07 "HgN/A
8:00 pm72 °FClear.9 mph73%30.07 "HgN/A
7:30 pm72 °FClear.8 mph73%30.07 "HgN/A
7:00 pm72 °FSunny.10 mph73%30.04 "HgN/A
6:30 pm73 °FSunny.10 mph69%30.04 "HgN/A
6:00 pm75 °FSunny.10 mph65%30.04 "HgN/A
5:30 pm75 °FSunny.12 mph65%30.04 "HgN/A
5:00 pm75 °FSunny.10 mph65%30.04 "HgN/A
4:30 pm77 °FSunny.13 mph65%30.04 "HgN/A
4:00 pm77 °FPassing clouds.14 mph61%30.04 "HgN/A
3:30 pm75 °FPassing clouds.14 mph61%30.04 "HgN/A
3:00 pm79 °FPassing clouds.14 mph61%30.07 "HgN/A
2:30 pm77 °FPassing clouds.14 mph61%30.07 "HgN/A
1:30 pm77 °FPassing clouds.13 mph61%30.07 "HgN/A
1:00 pm77 °FScattered clouds.13 mph61%30.07 "HgN/A
12:30 pm77 °FScattered clouds.13 mph61%30.07 "HgN/A
12:00 pm79 °FPassing clouds.14 mph58%30.07 "HgN/A
11:30 am77 °FPassing clouds.14 mph61%30.07 "HgN/A
11:00 am77 °FPassing clouds.15 mph61%30.07 "HgN/A
10:30 am77 °FScattered clouds.14 mph61%30.07 "HgN/A
10:00 am77 °FPassing clouds.13 mph57%30.07 "HgN/A
9:30 am75 °FPassing clouds.12 mph61%30.07 "HgN/A
9:00 am73 °FPassing clouds.13 mph65%30.07 "HgN/A
8:30 am73 °FSunny.10 mph69%30.07 "HgN/A
8:00 am73 °FSunny.8 mph69%30.04 "HgN/A
7:30 am72 °FBroken clouds.10 mph73%30.04 "HgN/A
7:00 am70 °FBroken clouds.7 mph78%30.01 "HgN/A
Weather by CustomWeather, © 2024

See weather overview